Time;durP1;ratioP1;P1;durP2;ratioP2;P2;SDS_P1;SDS_P2;PMS_P1;PMS_P2;Temp;Humidity;BMP_temperature;BMP_pressure;BME280_temperature;BME280_humidity;BME280_pressure;Samples;Min_cycle;Max_cycle;Signal;HPM_P1;HPM_P2
2023/03/18 00:00:22;;;;;;;5.20;3.65;;;;;;;;;;1023656;29;20037;-79
2023/03/18 00:01:00;;;;;;;5.13;3.22;;;;;;;;;;1023728;28;20027;-78
2023/03/18 00:01:31;;;;;;;3.42;2.60;;;;;;;;;;1023576;29;20119;-78
2023/03/18 00:02:02;;;;;;;4.80;3.40;;;;;;;;;;1023568;29;20035;-78
2023/03/18 00:02:33;;;;;;;3.40;2.95;;;;;;;;;;1025430;28;20034;-79
2023/03/18 00:03:05;;;;;;;3.77;2.93;;;;;;;;;;1023933;28;20108;-79
2023/03/18 00:03:37;;;;;;;4.65;3.05;;;;;;;;;;1023689;29;20416;-78
2023/03/18 00:04:08;;;;;;;3.83;2.75;;;;;;;;;;1023586;28;20016;-79
2023/03/18 00:04:39;;;;;;;3.33;3.00;;;;;;;;;;1023427;29;20070;-79
2023/03/18 00:05:11;;;;;;;4.80;3.15;;;;;;;;;;1024244;28;20155;-79
2023/03/18 00:05:42;;;;;;;4.07;2.83;;;;;;;;;;1026876;28;20089;-79
2023/03/18 00:06:15;;;;;;;3.63;2.70;;;;;;;;;;1019745;29;20063;-79
2023/03/18 00:06:46;;;;;;;5.20;3.40;;;;;;;;;;1019984;29;20519;-79
2023/03/18 00:07:17;;;;;;;3.58;2.65;;;;;;;;;;1022809;29;20095;-78
2023/03/18 00:07:49;;;;;;;4.40;3.00;;;;;;;;;;1024333;28;20284;-80
2023/03/18 00:08:20;;;;;;;5.15;3.15;;;;;;;;;;1024394;29;20273;-79
2023/03/18 00:08:51;;;;;;;4.53;3.20;;;;;;;;;;1024499;29;20047;-79
2023/03/18 00:09:22;;;;;;;5.13;3.22;;;;;;;;;;1024334;28;20092;-79
2023/03/18 00:09:53;;;;;;;4.55;3.50;;;;;;;;;;1020590;29;20024;-78
2023/03/18 00:10:25;;;;;;;4.27;3.43;;;;;;;;;;1021448;29;20055;-80
2023/03/18 00:10:56;;;;;;;5.00;3.55;;;;;;;;;;1022448;29;20294;-78
2023/03/18 00:11:27;;;;;;;4.35;3.08;;;;;;;;;;1021001;29;20024;-78
2023/03/18 00:11:59;;;;;;;3.83;2.75;;;;;;;;;;1020387;29;20066;-79
2023/03/18 00:12:31;;;;;;;5.57;3.65;;;;;;;;;;1016729;29;20024;-80
2023/03/18 00:13:03;;;;;;;5.53;2.95;;;;;;;;;;1017361;29;20173;-78
2023/03/18 00:13:34;;;;;;;5.28;2.95;;;;;;;;;;1021555;29;20117;-79
2023/03/18 00:14:07;;;;;;;3.78;3.22;;;;;;;;;;1022108;29;20024;-78
2023/03/18 00:14:38;;;;;;;5.13;3.38;;;;;;;;;;1024465;29;20139;-78
2023/03/18 00:15:11;;;;;;;4.88;3.33;;;;;;;;;;1021151;29;20056;-78
2023/03/18 00:15:42;;;;;;;5.55;3.08;;;;;;;;;;1024819;29;20086;-78
2023/03/18 00:16:13;;;;;;;4.38;3.35;;;;;;;;;;1024699;29;20399;-79
2023/03/18 00:16:44;;;;;;;4.65;3.30;;;;;;;;;;1021047;29;20082;-79
2023/03/18 00:17:15;;;;;;;5.10;3.58;;;;;;;;;;1020319;29;20617;-79
2023/03/18 00:17:47;;;;;;;4.68;2.75;;;;;;;;;;1018557;29;20091;-78
2023/03/18 00:18:18;;;;;;;4.43;3.35;;;;;;;;;;1017181;29;20051;-79
2023/03/18 00:18:49;;;;;;;4.10;2.92;;;;;;;;;;1021104;29;20051;-79
2023/03/18 00:19:20;;;;;;;5.00;3.30;;;;;;;;;;1021762;28;20027;-79
2023/03/18 00:19:52;;;;;;;5.60;3.50;;;;;;;;;;1020180;29;20323;-79
2023/03/18 00:20:37;;;;;;;3.67;2.80;;;;;;;;;;1020375;29;20082;-80
2023/03/18 00:21:08;;;;;;;5.25;3.45;;;;;;;;;;1023055;29;20031;-79
2023/03/18 00:21:39;;;;;;;3.85;3.38;;;;;;;;;;1026905;28;20368;-80
2023/03/18 00:22:10;;;;;;;5.10;3.20;;;;;;;;;;1028922;28;20415;-80
2023/03/18 00:22:42;;;;;;;5.05;2.83;;;;;;;;;;1028412;28;20027;-80
2023/03/18 00:23:13;;;;;;;3.65;2.97;;;;;;;;;;1028320;28;20015;-79
2023/03/18 00:23:45;;;;;;;5.93;3.50;;;;;;;;;;1024370;29;20074;-79
2023/03/18 00:24:16;;;;;;;4.88;3.30;;;;;;;;;;1025044;28;20058;-78
2023/03/18 00:24:47;;;;;;;6.07;3.60;;;;;;;;;;1028095;28;20097;-78
2023/03/18 00:25:18;;;;;;;3.92;3.10;;;;;;;;;;1020804;29;20119;-79
2023/03/18 00:25:51;;;;;;;4.72;3.38;;;;;;;;;;1020753;29;20027;-79
2023/03/18 00:26:23;;;;;;;5.35;3.85;;;;;;;;;;1016729;29;20040;-78
2023/03/18 00:26:54;;;;;;;4.53;3.20;;;;;;;;;;1023945;28;20051;-79
2023/03/18 00:27:26;;;;;;;3.70;3.17;;;;;;;;;;1028812;28;20023;-78
2023/03/18 00:27:57;;;;;;;3.90;3.28;;;;;;;;;;1027572;28;20038;-79
2023/03/18 00:28:28;;;;;;;4.53;3.10;;;;;;;;;;1028466;28;20039;-78
2023/03/18 00:28:59;;;;;;;4.30;3.33;;;;;;;;;;1028527;28;20859;-79
2023/03/18 00:29:30;;;;;;;4.00;2.90;;;;;;;;;;1028601;28;20592;-79
2023/03/18 00:30:02;;;;;;;4.23;3.00;;;;;;;;;;1023400;29;20128;-79
2023/03/18 00:30:35;;;;;;;4.70;3.25;;;;;;;;;;1024419;29;20487;-78
2023/03/18 00:31:08;;;;;;;4.13;3.08;;;;;;;;;;1020687;29;20067;-78
2023/03/18 00:31:39;;;;;;;4.38;3.10;;;;;;;;;;1021208;29;20118;-79
2023/03/18 00:32:10;;;;;;;4.85;3.42;;;;;;;;;;1017942;29;20039;-79
2023/03/18 00:32:41;;;;;;;4.43;3.67;;;;;;;;;;1016603;29;20035;-78
2023/03/18 00:33:12;;;;;;;5.97;3.55;;;;;;;;;;1017099;29;20020;-78
2023/03/18 00:33:49;;;;;;;4.28;3.28;;;;;;;;;;1016804;29;20036;-78
2023/03/18 00:34:20;;;;;;;5.63;3.55;;;;;;;;;;1021570;29;20047;-79
2023/03/18 00:34:52;;;;;;;6.05;3.53;;;;;;;;;;1025076;29;20058;-79
2023/03/18 00:35:26;;;;;;;4.90;3.30;;;;;;;;;;1022412;29;20367;-79
2023/03/18 00:35:57;;;;;;;5.20;3.55;;;;;;;;;;1024367;29;20023;-79
2023/03/18 00:36:29;;;;;;;6.22;3.53;;;;;;;;;;1024439;29;20036;-79
2023/03/18 00:37:00;;;;;;;4.10;3.22;;;;;;;;;;1022792;29;20019;-79
2023/03/18 00:37:32;;;;;;;4.43;3.78;;;;;;;;;;1024179;29;20027;-78
2023/03/18 00:38:06;;;;;;;5.82;3.50;;;;;;;;;;1020552;29;20050;-78
2023/03/18 00:38:37;;;;;;;5.43;3.35;;;;;;;;;;1020746;29;20014;-80
2023/03/18 00:39:09;;;;;;;3.60;3.15;;;;;;;;;;1021532;29;20016;-78
2023/03/18 00:39:43;;;;;;;4.78;3.50;;;;;;;;;;1021574;29;20357;-78
2023/03/18 00:40:19;;;;;;;6.63;4.22;;;;;;;;;;1024908;28;20103;-77
2023/03/18 00:41:03;;;;;;;5.38;3.75;;;;;;;;;;1024514;29;20102;-79
2023/03/18 00:41:35;;;;;;;7.13;3.15;;;;;;;;;;1023782;29;20034;-79
2023/03/18 00:42:09;;;;;;;4.90;3.53;;;;;;;;;;1020669;29;20067;-79
2023/03/18 00:42:46;;;;;;;4.32;3.35;;;;;;;;;;1020855;29;20019;-79
2023/03/18 00:43:17;;;;;;;6.20;3.90;;;;;;;;;;1020837;29;20007;-80
2023/03/18 00:43:51;;;;;;;5.00;3.85;;;;;;;;;;1017592;29;20498;-79
2023/03/18 00:44:24;;;;;;;6.45;3.78;;;;;;;;;;1022108;29;20012;-79
2023/03/18 00:44:55;;;;;;;5.70;3.40;;;;;;;;;;1024613;29;20490;-78
2023/03/18 00:45:26;;;;;;;6.97;3.83;;;;;;;;;;1026748;28;20062;-79
2023/03/18 00:45:57;;;;;;;5.18;3.20;;;;;;;;;;1028295;28;20025;-79
2023/03/18 00:46:33;;;;;;;5.78;4.20;;;;;;;;;;1024704;29;20438;-79
2023/03/18 00:47:04;;;;;;;4.95;3.53;;;;;;;;;;1024588;28;20395;-79
2023/03/18 00:47:37;;;;;;;5.05;3.78;;;;;;;;;;1024870;29;20107;-79
2023/03/18 00:48:08;;;;;;;4.28;3.25;;;;;;;;;;1025554;28;20029;-79
2023/03/18 00:48:39;;;;;;;5.15;3.33;;;;;;;;;;1028115;28;20058;-79
2023/03/18 00:49:10;;;;;;;5.43;3.63;;;;;;;;;;1020641;29;20019;-79
2023/03/18 00:49:41;;;;;;;5.60;3.40;;;;;;;;;;1017229;29;20708;-78
2023/03/18 00:50:12;;;;;;;4.60;3.90;;;;;;;;;;1018343;29;20015;-78
2023/03/18 00:50:44;;;;;;;5.60;3.90;;;;;;;;;;1024154;28;20058;-79
2023/03/18 00:51:16;;;;;;;4.78;3.72;;;;;;;;;;1028700;28;20390;-80
2023/03/18 00:51:47;;;;;;;4.13;3.47;;;;;;;;;;1028919;28;20085;-80
2023/03/18 00:52:18;;;;;;;4.75;3.65;;;;;;;;;;1028738;28;20022;-81
2023/03/18 00:52:49;;;;;;;5.43;3.47;;;;;;;;;;1028848;28;20042;-79
2023/03/18 00:53:20;;;;;;;4.55;3.35;;;;;;;;;;1028773;28;20017;-80
2023/03/18 00:53:54;;;;;;;5.35;3.75;;;;;;;;;;1024428;29;20016;-78
2023/03/18 00:54:25;;;;;;;5.32;3.60;;;;;;;;;;1024585;29;20023;-80
2023/03/18 00:54:56;;;;;;;3.67;2.75;;;;;;;;;;1020428;28;20190;-79
2023/03/18 00:55:27;;;;;;;5.15;3.40;;;;;;;;;;1021213;29;20020;-80
2023/03/18 00:55:59;;;;;;;5.13;3.67;;;;;;;;;;1024655;28;20038;-79
2023/03/18 00:56:31;;;;;;;4.35;3.20;;;;;;;;;;1024688;28;20019;-78
2023/03/18 00:57:02;;;;;;;5.30;3.15;;;;;;;;;;1028338;28;20015;-80
2023/03/18 00:57:33;;;;;;;4.15;3.40;;;;;;;;;;1024590;29;20043;-78
2023/03/18 00:58:04;;;;;;;4.45;3.45;;;;;;;;;;1024524;29;20110;-78
2023/03/18 00:58:36;;;;;;;4.75;3.60;;;;;;;;;;1020956;29;20032;-78
2023/03/18 00:59:07;;;;;;;4.35;3.40;;;;;;;;;;1024761;28;20639;-79
2023/03/18 00:59:38;;;;;;;5.40;3.42;;;;;;;;;;1025640;28;20071;-80
2023/03/18 01:00:10;;;;;;;5.03;3.60;;;;;;;;;;1024722;29;20050;-79
2023/03/18 01:00:42;;;;;;;3.95;3.35;;;;;;;;;;1024505;28;20258;-79
2023/03/18 01:01:13;;;;;;;6.10;3.20;;;;;;;;;;1025365;28;20450;-79
2023/03/18 01:01:44;;;;;;;5.75;3.53;;;;;;;;;;1024003;29;20091;-79
2023/03/18 01:02:15;;;;;;;4.28;3.58;;;;;;;;;;1024442;29;20031;-79
2023/03/18 01:02:48;;;;;;;4.47;3.20;;;;;;;;;;1020675;29;20039;-79
2023/03/18 01:03:19;;;;;;;8.23;3.38;;;;;;;;;;1021634;29;20071;-78
2023/03/18 01:03:50;;;;;;;6.10;3.53;;;;;;;;;;1024870;29;20143;-79
2023/03/18 01:04:21;;;;;;;5.88;3.67;;;;;;;;;;1017774;29;20582;-79
2023/03/18 01:04:52;;;;;;;4.78;3.40;;;;;;;;;;1020635;29;20126;-80
2023/03/18 01:05:23;;;;;;;6.10;3.72;;;;;;;;;;1024575;29;20023;-79
2023/03/18 01:05:55;;;;;;;4.07;3.60;;;;;;;;;;1024418;28;20075;-79
2023/03/18 01:06:28;;;;;;;4.88;3.63;;;;;;;;;;1028659;28;20062;-78
2023/03/18 01:07:00;;;;;;;5.20;3.67;;;;;;;;;;1024376;29;20019;-79
2023/03/18 01:07:31;;;;;;;5.53;3.47;;;;;;;;;;1024986;29;20070;-79
2023/03/18 01:08:03;;;;;;;4.47;3.83;;;;;;;;;;1020238;29;20024;-79
2023/03/18 01:08:35;;;;;;;4.97;3.47;;;;;;;;;;1017470;29;20895;-79
2023/03/18 01:09:08;;;;;;;4.68;3.47;;;;;;;;;;1017088;29;20077;-78
2023/03/18 01:09:39;;;;;;;4.18;3.28;;;;;;;;;;1017746;29;20410;-78
2023/03/18 01:10:11;;;;;;;6.75;3.92;;;;;;;;;;1017265;29;20258;-78
2023/03/18 01:10:42;;;;;;;5.15;4.18;;;;;;;;;;1017657;29;20509;-77
2023/03/18 01:11:13;;;;;;;5.18;3.78;;;;;;;;;;1020849;29;20491;-78
2023/03/18 01:11:44;;;;;;;4.03;3.45;;;;;;;;;;1020868;29;20074;-79
2023/03/18 01:12:15;;;;;;;4.88;3.75;;;;;;;;;;1018154;29;20036;-79
2023/03/18 01:12:46;;;;;;;4.80;3.77;;;;;;;;;;1019690;29;20349;-79
2023/03/18 01:13:17;;;;;;;4.53;3.38;;;;;;;;;;1020638;29;20287;-79
2023/03/18 01:13:49;;;;;;;5.55;4.07;;;;;;;;;;1021357;29;20099;-78
2023/03/18 01:14:20;;;;;;;4.88;3.88;;;;;;;;;;1020865;29;20024;-79
2023/03/18 01:14:51;;;;;;;5.07;3.90;;;;;;;;;;1020941;29;20430;-79
2023/03/18 01:15:23;;;;;;;5.03;3.70;;;;;;;;;;1020716;29;20550;-80
2023/03/18 01:15:55;;;;;;;5.00;3.60;;;;;;;;;;1021131;29;20551;-79
2023/03/18 01:16:26;;;;;;;7.45;4.82;;;;;;;;;;1024809;29;20366;-80
2023/03/18 01:16:57;;;;;;;5.65;3.58;;;;;;;;;;1028869;28;20049;-80
2023/03/18 01:17:28;;;;;;;5.30;4.10;;;;;;;;;;1024174;28;20054;-80
2023/03/18 01:17:59;;;;;;;4.50;3.33;;;;;;;;;;1021054;29;20051;-80
2023/03/18 01:18:31;;;;;;;4.43;3.38;;;;;;;;;;1016440;29;20252;-80
2023/03/18 01:19:03;;;;;;;4.07;3.63;;;;;;;;;;1017449;29;20083;-79
2023/03/18 01:19:34;;;;;;;5.10;3.60;;;;;;;;;;1023381;29;20061;-81
2023/03/18 01:20:05;;;;;;;5.38;3.67;;;;;;;;;;1027075;28;20019;-79
2023/03/18 01:20:37;;;;;;;4.68;3.40;;;;;;;;;;1024762;29;20019;-80
2023/03/18 01:21:09;;;;;;;5.68;3.50;;;;;;;;;;1024760;29;20160;-79
2023/03/18 01:21:40;;;;;;;4.10;3.08;;;;;;;;;;1026732;28;20162;-79
2023/03/18 01:22:11;;;;;;;3.85;3.25;;;;;;;;;;1025103;28;20070;-79
2023/03/18 01:22:42;;;;;;;4.15;3.53;;;;;;;;;;1028432;28;20015;-79
2023/03/18 01:23:13;;;;;;;7.53;3.88;;;;;;;;;;1024514;29;20020;-79
2023/03/18 01:23:44;;;;;;;4.45;3.50;;;;;;;;;;1024799;29;20047;-79
2023/03/18 01:24:15;;;;;;;5.80;3.80;;;;;;;;;;1024990;28;20023;-78
2023/03/18 01:24:46;;;;;;;5.40;4.25;;;;;;;;;;1028433;28;20087;-78
2023/03/18 01:25:17;;;;;;;5.10;3.50;;;;;;;;;;1028208;28;20040;-78
2023/03/18 01:25:49;;;;;;;4.50;4.03;;;;;;;;;;1028498;28;20313;-79
2023/03/18 01:26:20;;;;;;;4.68;3.58;;;;;;;;;;1028547;28;20015;-79
2023/03/18 01:26:50;;;;;;;4.22;3.30;;;;;;;;;;1027616;28;20011;-79
2023/03/18 01:27:21;;;;;;;5.80;4.13;;;;;;;;;;1028615;28;20796;-79
2023/03/18 01:27:52;;;;;;;6.17;3.93;;;;;;;;;;1024072;29;20369;-79
2023/03/18 01:28:26;;;;;;;5.53;4.05;;;;;;;;;;1024922;28;20274;-80
2023/03/18 01:28:57;;;;;;;3.95;3.55;;;;;;;;;;1024381;28;20019;-79
2023/03/18 01:29:28;;;;;;;4.00;3.40;;;;;;;;;;1020805;29;20058;-79
2023/03/18 01:29:59;;;;;;;5.97;3.80;;;;;;;;;;1016545;29;20832;-80
2023/03/18 01:30:30;;;;;;;4.97;4.05;;;;;;;;;;1017154;29;20024;-79
2023/03/18 01:31:01;;;;;;;4.38;3.60;;;;;;;;;;1020897;29;20012;-79
2023/03/18 01:31:33;;;;;;;5.05;3.95;;;;;;;;;;1017127;29;20391;-77
2023/03/18 01:32:04;;;;;;;5.57;3.58;;;;;;;;;;1021184;29;20031;-79
2023/03/18 01:32:36;;;;;;;4.88;3.63;;;;;;;;;;1024680;29;20467;-79
2023/03/18 01:33:07;;;;;;;3.90;3.50;;;;;;;;;;1021175;29;20424;-78
2023/03/18 01:33:39;;;;;;;5.53;3.78;;;;;;;;;;1024956;28;20353;-77
2023/03/18 01:34:10;;;;;;;5.22;3.90;;;;;;;;;;1024484;29;20038;-78
2023/03/18 01:34:41;;;;;;;5.07;4.10;;;;;;;;;;1021083;29;20082;-78
2023/03/18 01:35:12;;;;;;;5.35;4.03;;;;;;;;;;1020640;29;20044;-80
2023/03/18 01:35:45;;;;;;;5.30;4.03;;;;;;;;;;1020699;29;20023;-79
2023/03/18 01:36:17;;;;;;;7.13;4.05;;;;;;;;;;1017288;29;20028;-80
2023/03/18 01:36:48;;;;;;;4.43;3.78;;;;;;;;;;1017339;29;20025;-80
2023/03/18 01:37:20;;;;;;;5.25;3.75;;;;;;;;;;1020530;29;20100;-80
2023/03/18 01:37:52;;;;;;;4.47;3.75;;;;;;;;;;1021178;29;20031;-79
2023/03/18 01:38:24;;;;;;;4.22;3.58;;;;;;;;;;1024960;28;20079;-79
2023/03/18 01:38:56;;;;;;;5.35;4.18;;;;;;;;;;1024951;28;20058;-79
2023/03/18 01:39:27;;;;;;;6.90;4.28;;;;;;;;;;1024417;29;20034;-79
2023/03/18 01:39:59;;;;;;;5.15;3.80;;;;;;;;;;1024842;29;20023;-80
2023/03/18 01:40:32;;;;;;;6.43;3.78;;;;;;;;;;1024558;29;20020;-79
2023/03/18 01:41:04;;;;;;;6.07;4.07;;;;;;;;;;1024913;29;20067;-79
2023/03/18 01:41:35;;;;;;;5.90;3.60;;;;;;;;;;1024772;29;20082;-79
2023/03/18 01:42:07;;;;;;;4.82;3.47;;;;;;;;;;1025247;28;20031;-79
2023/03/18 01:42:38;;;;;;;4.05;3.55;;;;;;;;;;1024755;29;20133;-79
2023/03/18 01:43:13;;;;;;;4.03;3.55;;;;;;;;;;1024943;29;20097;-80
2023/03/18 01:43:44;;;;;;;4.45;3.67;;;;;;;;;;1024610;29;20042;-79
2023/03/18 01:44:18;;;;;;;6.57;3.90;;;;;;;;;;1019034;29;20024;-79
2023/03/18 01:44:49;;;;;;;5.55;4.00;;;;;;;;;;1020669;29;20062;-79
2023/03/18 01:45:20;;;;;;;5.47;3.88;;;;;;;;;;1022672;29;20501;-79
2023/03/18 01:45:53;;;;;;;4.25;3.38;;;;;;;;;;1021242;29;20428;-79
2023/03/18 01:46:30;;;;;;;6.43;4.40;;;;;;;;;;1024669;29;20033;-79
2023/03/18 01:47:01;;;;;;;4.75;3.65;;;;;;;;;;1024444;29;20023;-79
2023/03/18 01:47:33;;;;;;;5.80;3.93;;;;;;;;;;1024663;29;20019;-79
2023/03/18 01:48:04;;;;;;;4.53;3.97;;;;;;;;;;1026870;28;20629;-80
2023/03/18 01:48:38;;;;;;;4.78;3.88;;;;;;;;;;1024392;29;20162;-79
2023/03/18 01:49:11;;;;;;;4.78;3.92;;;;;;;;;;1021921;29;20030;-79
2023/03/18 01:49:47;;;;;;;5.22;4.00;;;;;;;;;;1024531;29;20031;-79
2023/03/18 01:50:21;;;;;;;6.35;3.92;;;;;;;;;;1023084;29;20047;-79
2023/03/18 01:50:54;;;;;;;4.15;3.53;;;;;;;;;;1024553;28;20019;-80
2023/03/18 01:51:26;;;;;;;5.93;4.07;;;;;;;;;;1027727;28;20454;-79
2023/03/18 01:51:58;;;;;;;5.47;3.95;;;;;;;;;;1028716;28;20022;-79
2023/03/18 01:52:31;;;;;;;5.22;3.42;;;;;;;;;;1028455;28;20091;-79
2023/03/18 01:53:05;;;;;;;5.00;3.70;;;;;;;;;;1028928;28;20076;-80
2023/03/18 01:53:39;;;;;;;5.28;4.05;;;;;;;;;;1028890;28;20027;-79
2023/03/18 01:54:12;;;;;;;5.57;3.97;;;;;;;;;;1024478;28;20035;-79
2023/03/18 01:55:07;;;;;;;5.13;4.10;;;;;;;;;;1024642;29;20458;-79
2023/03/18 01:55:38;;;;;;;6.28;4.38;;;;;;;;;;1015370;29;20067;-80
2023/03/18 01:56:10;;;;;;;5.60;4.13;;;;;;;;;;1028230;28;20018;-80
2023/03/18 01:56:43;;;;;;;6.70;4.40;;;;;;;;;;1024384;29;20031;-80
2023/03/18 01:57:16;;;;;;;5.68;4.13;;;;;;;;;;1020692;29;20526;-79
2023/03/18 01:57:48;;;;;;;7.03;4.30;;;;;;;;;;1020559;29;20103;-80
2023/03/18 01:58:21;;;;;;;7.55;4.55;;;;;;;;;;1017277;29;20039;-80
2023/03/18 01:58:54;;;;;;;5.72;4.50;;;;;;;;;;1017500;29;20031;-79
2023/03/18 01:59:27;;;;;;;6.40;4.18;;;;;;;;;;1020535;29;20023;-79
2023/03/18 01:59:59;;;;;;;6.57;4.47;;;;;;;;;;1017777;29;20288;-79
2023/03/18 02:00:30;;;;;;;6.68;4.13;;;;;;;;;;1017022;29;20063;-78
2023/03/18 02:01:03;;;;;;;4.68;3.80;;;;;;;;;;1016771;29;20055;-79
2023/03/18 02:01:38;;;;;;;5.25;4.00;;;;;;;;;;1016119;29;20056;-78
2023/03/18 02:02:10;;;;;;;5.28;3.95;;;;;;;;;;1017557;29;20620;-78
2023/03/18 02:02:42;;;;;;;5.85;4.13;;;;;;;;;;1021599;29;20032;-79
2023/03/18 02:03:14;;;;;;;5.25;4.00;;;;;;;;;;1020831;29;20310;-79
2023/03/18 02:03:45;;;;;;;5.05;4.20;;;;;;;;;;1021006;29;20058;-79
2023/03/18 02:04:16;;;;;;;5.18;4.40;;;;;;;;;;1023924;28;20082;-79
2023/03/18 02:04:52;;;;;;;4.72;4.25;;;;;;;;;;1024564;28;20494;-79
2023/03/18 02:05:25;;;;;;;5.55;4.80;;;;;;;;;;1028552;28;20038;-78
2023/03/18 02:05:56;;;;;;;6.10;4.30;;;;;;;;;;1028182;28;21173;-79
2023/03/18 02:06:28;;;;;;;5.65;4.55;;;;;;;;;;1024547;29;20026;-78
2023/03/18 02:07:00;;;;;;;5.47;4.30;;;;;;;;;;1024082;29;20054;-78
2023/03/18 02:07:33;;;;;;;5.53;4.22;;;;;;;;;;1026297;28;20016;-78
2023/03/18 02:08:03;;;;;;;7.38;4.97;;;;;;;;;;1023564;29;20392;-79
2023/03/18 02:08:35;;;;;;;5.65;4.07;;;;;;;;;;1020524;29;20530;-79
2023/03/18 02:09:06;;;;;;;5.45;4.22;;;;;;;;;;1020418;29;20031;-79
2023/03/18 02:09:37;;;;;;;7.57;4.03;;;;;;;;;;1021157;29;20063;-80
2023/03/18 02:10:12;;;;;;;5.70;4.05;;;;;;;;;;1024428;29;20027;-79
2023/03/18 02:10:44;;;;;;;5.28;4.38;;;;;;;;;;1024809;28;20035;-79
2023/03/18 02:11:15;;;;;;;5.95;4.32;;;;;;;;;;1024909;28;20034;-79
2023/03/18 02:11:50;;;;;;;6.82;4.28;;;;;;;;;;1024816;29;20019;-78
2023/03/18 02:12:23;;;;;;;6.22;3.83;;;;;;;;;;1024395;28;20027;-78
2023/03/18 02:12:59;;;;;;;4.95;3.60;;;;;;;;;;1024998;29;20031;-79
2023/03/18 02:13:30;;;;;;;5.15;3.83;;;;;;;;;;1024623;29;20399;-78
2023/03/18 02:14:02;;;;;;;6.60;3.90;;;;;;;;;;1024450;29;20030;-78
2023/03/18 02:14:33;;;;;;;6.63;4.55;;;;;;;;;;1024577;28;20025;-78
2023/03/18 02:15:10;;;;;;;4.95;4.03;;;;;;;;;;1020551;29;20071;-80
2023/03/18 02:15:46;;;;;;;5.43;4.07;;;;;;;;;;1024129;29;20123;-80
2023/03/18 02:16:20;;;;;;;7.28;4.10;;;;;;;;;;1024128;28;20023;-79
2023/03/18 02:17:02;;;;;;;5.30;3.80;;;;;;;;;;1020589;29;20055;-79
2023/03/18 02:17:35;;;;;;;4.38;3.97;;;;;;;;;;1016425;29;20376;-80
2023/03/18 02:18:14;;;;;;;5.25;4.30;;;;;;;;;;1020556;29;20031;-80
2023/03/18 02:18:51;;;;;;;5.30;4.22;;;;;;;;;;1023438;29;20066;-80
2023/03/18 02:19:29;;;;;;;5.45;4.07;;;;;;;;;;1024151;29;20046;-80
2023/03/18 02:20:12;;;;;;;4.63;3.75;;;;;;;;;;1024342;29;20165;-79
2023/03/18 02:20:54;;;;;;;4.78;4.10;;;;;;;;;;1024707;29;20050;-79
2023/03/18 02:21:44;;;;;;;5.40;4.47;;;;;;;;;;1024380;29;20126;-79
2023/03/18 02:22:28;;;;;;;5.82;4.50;;;;;;;;;;1028280;28;20030;-79
2023/03/18 02:23:11;;;;;;;5.05;4.20;;;;;;;;;;1024310;29;20450;-79
2023/03/18 02:23:55;;;;;;;4.65;3.95;;;;;;;;;;1024501;29;20027;-79
2023/03/18 02:24:48;;;;;;;6.40;4.78;;;;;;;;;;1024521;29;20545;-79
2023/03/18 02:25:38;;;;;;;5.13;3.75;;;;;;;;;;1027979;28;20022;-80
2023/03/18 02:26:27;;;;;;;5.65;4.65;;;;;;;;;;1028138;28;20041;-80
2023/03/18 02:27:17;;;;;;;6.45;4.85;;;;;;;;;;1027937;28;20430;-79
2023/03/18 02:27:50;;;;;;;5.13;4.25;;;;;;;;;;1028196;28;20027;-80
2023/03/18 02:28:25;;;;;;;4.40;3.78;;;;;;;;;;1028196;28;20767;-78
2023/03/18 02:28:58;;;;;;;5.70;4.45;;;;;;;;;;1028158;28;20154;-79
2023/03/18 02:29:31;;;;;;;5.43;4.50;;;;;;;;;;1024457;28;20115;-79
2023/03/18 02:30:05;;;;;;;5.78;4.43;;;;;;;;;;1024079;28;20122;-79
2023/03/18 02:30:39;;;;;;;5.88;4.65;;;;;;;;;;1024345;29;20031;-79
2023/03/18 02:31:12;;;;;;;5.35;4.85;;;;;;;;;;1019886;29;20031;-79
2023/03/18 02:31:43;;;;;;;5.25;4.68;;;;;;;;;;1020450;29;20098;-79
2023/03/18 02:32:15;;;;;;;8.05;4.85;;;;;;;;;;1020391;29;20772;-79
2023/03/18 02:32:47;;;;;;;5.90;4.13;;;;;;;;;;1021073;29;20103;-79
2023/03/18 02:33:20;;;;;;;4.75;4.13;;;;;;;;;;1020905;29;20042;-79
2023/03/18 02:33:51;;;;;;;5.95;4.38;;;;;;;;;;1020160;29;20032;-78
2023/03/18 02:34:26;;;;;;;4.60;3.92;;;;;;;;;;1019937;29;20155;-78
2023/03/18 02:34:59;;;;;;;4.05;3.65;;;;;;;;;;1017378;29;20031;-79
2023/03/18 02:35:31;;;;;;;4.70;3.95;;;;;;;;;;1021887;29;20032;-79
2023/03/18 02:36:04;;;;;;;4.55;3.97;;;;;;;;;;1024131;29;20477;-79
2023/03/18 02:36:36;;;;;;;4.50;4.10;;;;;;;;;;1024400;29;20103;-78
2023/03/18 02:37:07;;;;;;;4.70;4.00;;;;;;;;;;1024292;29;20113;-79
2023/03/18 02:37:38;;;;;;;5.10;3.97;;;;;;;;;;1024405;28;20402;-79
2023/03/18 02:38:09;;;;;;;6.35;4.80;;;;;;;;;;1024397;29;20264;-79
2023/03/18 02:38:41;;;;;;;5.32;3.88;;;;;;;;;;1024445;29;20477;-79
2023/03/18 02:39:15;;;;;;;5.18;4.50;;;;;;;;;;1024493;28;20030;-80
2023/03/18 02:39:46;;;;;;;5.88;4.40;;;;;;;;;;1024860;28;20100;-80
2023/03/18 02:40:25;;;;;;;4.43;4.03;;;;;;;;;;1023945;28;20027;-79
2023/03/18 02:40:56;;;;;;;6.40;4.40;;;;;;;;;;1027865;28;20359;-79
2023/03/18 02:41:30;;;;;;;5.63;4.38;;;;;;;;;;1024369;29;20023;-80
2023/03/18 02:42:01;;;;;;;6.85;4.47;;;;;;;;;;1019890;29;20062;-80
2023/03/18 02:42:32;;;;;;;5.65;4.30;;;;;;;;;;1016800;29;20039;-80
2023/03/18 02:43:22;;;;;;;5.53;4.50;;;;;;;;;;1017055;29;20040;-79
2023/03/18 02:43:53;;;;;;;4.70;4.20;;;;;;;;;;1026079;28;20261;-80
2023/03/18 02:44:25;;;;;;;4.75;4.00;;;;;;;;;;1028251;28;20027;-79
2023/03/18 02:44:56;;;;;;;5.20;3.90;;;;;;;;;;1028205;28;20097;-79
2023/03/18 02:45:35;;;;;;;5.63;4.38;;;;;;;;;;1027082;28;20852;-79
2023/03/18 02:46:11;;;;;;;5.80;4.10;;;;;;;;;;1020306;29;20455;-79
2023/03/18 02:47:15;;;;;;;5.22;4.18;;;;;;;;;;1016091;29;20088;-79
2023/03/18 02:47:46;;;;;;;4.63;4.00;;;;;;;;;;1005152;29;20119;-80
2023/03/18 02:48:18;;;;;;;5.13;4.43;;;;;;;;;;1009755;29;20044;-79
2023/03/18 02:48:49;;;;;;;5.55;4.32;;;;;;;;;;1017519;29;20037;-79
2023/03/18 02:49:22;;;;;;;6.65;4.32;;;;;;;;;;1024373;28;20027;-79
2023/03/18 02:49:53;;;;;;;6.63;4.28;;;;;;;;;;1028375;28;20049;-79
2023/03/18 02:50:24;;;;;;;5.22;4.25;;;;;;;;;;1024101;29;20427;-79
2023/03/18 02:50:56;;;;;;;5.32;4.30;;;;;;;;;;1020435;29;20506;-79
2023/03/18 02:51:27;;;;;;;6.93;4.90;;;;;;;;;;1020318;29;20024;-79
2023/03/18 02:51:59;;;;;;;5.25;4.43;;;;;;;;;;1016670;29;20042;-80
2023/03/18 02:52:30;;;;;;;6.40;4.50;;;;;;;;;;1013114;29;20087;-79
2023/03/18 02:53:02;;;;;;;5.78;4.38;;;;;;;;;;1012246;29;20460;-79
2023/03/18 02:53:33;;;;;;;5.25;4.70;;;;;;;;;;1013379;29;20033;-80
2023/03/18 02:54:09;;;;;;;6.50;4.57;;;;;;;;;;1015281;29;20727;-79
2023/03/18 02:54:40;;;;;;;5.60;4.50;;;;;;;;;;1017213;29;20052;-79
2023/03/18 02:55:11;;;;;;;6.93;4.40;;;;;;;;;;1020413;29;20083;-79
2023/03/18 02:55:42;;;;;;;6.93;4.35;;;;;;;;;;1021234;29;20035;-79
2023/03/18 02:56:14;;;;;;;4.97;4.47;;;;;;;;;;1024381;28;20031;-79
2023/03/18 02:56:45;;;;;;;4.90;4.40;;;;;;;;;;1028332;28;20022;-79
2023/03/18 02:57:16;;;;;;;6.15;4.60;;;;;;;;;;1023786;29;20099;-79
2023/03/18 02:57:47;;;;;;;6.47;4.28;;;;;;;;;;1024290;29;20031;-79
2023/03/18 02:58:18;;;;;;;5.80;4.35;;;;;;;;;;1024186;29;20458;-78
2023/03/18 02:58:50;;;;;;;5.75;4.35;;;;;;;;;;1024461;29;20019;-79
2023/03/18 02:59:21;;;;;;;5.22;4.38;;;;;;;;;;1026920;28;20037;-79
2023/03/18 02:59:52;;;;;;;5.05;3.70;;;;;;;;;;1024092;29;20356;-79
2023/03/18 03:00:23;;;;;;;5.57;4.30;;;;;;;;;;1024165;29;20580;-79
2023/03/18 03:00:56;;;;;;;5.10;3.67;;;;;;;;;;1024498;28;20027;-79
2023/03/18 03:01:27;;;;;;;4.88;3.88;;;;;;;;;;1028235;28;20018;-79
2023/03/18 03:01:58;;;;;;;5.45;3.78;;;;;;;;;;1024717;28;20486;-79
2023/03/18 03:02:29;;;;;;;6.55;4.18;;;;;;;;;;1023425;29;20027;-79
2023/03/18 03:03:01;;;;;;;4.15;3.38;;;;;;;;;;1020196;29;20020;-79
2023/03/18 03:03:33;;;;;;;4.88;3.90;;;;;;;;;;1020231;29;20099;-79
2023/03/18 03:04:05;;;;;;;5.47;4.07;;;;;;;;;;1022272;28;20024;-78
2023/03/18 03:04:37;;;;;;;6.20;4.75;;;;;;;;;;1027802;28;20448;-79
2023/03/18 03:05:09;;;;;;;4.88;3.97;;;;;;;;;;1028002;28;20069;-79
2023/03/18 03:05:40;;;;;;;5.35;4.25;;;;;;;;;;1024229;29;20106;-78
2023/03/18 03:06:11;;;;;;;5.32;4.00;;;;;;;;;;1024165;29;20040;-78
2023/03/18 03:06:42;;;;;;;5.72;3.90;;;;;;;;;;1024206;29;20070;-80
2023/03/18 03:07:13;;;;;;;6.93;4.10;;;;;;;;;;1024091;29;20030;-80
2023/03/18 03:07:45;;;;;;;4.70;3.97;;;;;;;;;;1023902;29;20034;-78
2023/03/18 03:08:16;;;;;;;5.05;4.25;;;;;;;;;;1023110;29;20453;-80
2023/03/18 03:08:47;;;;;;;5.55;4.75;;;;;;;;;;1024079;29;20391;-79
2023/03/18 03:09:18;;;;;;;5.80;3.88;;;;;;;;;;1024325;28;20023;-78
2023/03/18 03:09:49;;;;;;;5.43;4.25;;;;;;;;;;1024171;29;20046;-79
2023/03/18 03:10:20;;;;;;;6.10;4.85;;;;;;;;;;1024211;29;20027;-78
2023/03/18 03:10:51;;;;;;;6.65;4.65;;;;;;;;;;1024089;29;20027;-79
2023/03/18 03:11:24;;;;;;;5.90;4.20;;;;;;;;;;1028050;28;20034;-79
2023/03/18 03:11:55;;;;;;;5.35;4.38;;;;;;;;;;1028021;28;20377;-80
2023/03/18 03:12:27;;;;;;;6.70;4.23;;;;;;;;;;1027956;28;20476;-78
2023/03/18 03:12:59;;;;;;;6.03;4.28;;;;;;;;;;1024001;28;20711;-79
2023/03/18 03:13:30;;;;;;;4.55;4.13;;;;;;;;;;1023803;29;20022;-79
2023/03/18 03:14:01;;;;;;;5.43;4.47;;;;;;;;;;1020532;29;20054;-79
2023/03/18 03:14:32;;;;;;;4.97;4.32;;;;;;;;;;1024374;29;20058;-78
2023/03/18 03:15:04;;;;;;;6.20;4.55;;;;;;;;;;1027698;28;20027;-80
2023/03/18 03:15:35;;;;;;;5.85;4.95;;;;;;;;;;1023324;28;20103;-79
2023/03/18 03:16:08;;;;;;;5.63;4.15;;;;;;;;;;1024206;28;20038;-80